Time;durP1;ratioP1;P1;durP2;ratioP2;P2;SDS_P1;SDS_P2;PMS_P1;PMS_P2;Temp;Humidity;BMP_temperature;BMP_pressure;BME280_temperature;BME280_humidity;BME280_pressure;Samples;Min_cycle;Max_cycle;Signal;HPM_P1;HPM_P2
2022/02/10 00:14:30;;;;;;;138.18;88.05;;;7.10;87.30;;;;;;5112667;28;20042;-79
2022/02/10 00:17:12;;;;;;;158.60;101.65;;;7.20;87.50;;;;;;5112852;28;20043;-80
2022/02/10 00:20:29;;;;;;;161.65;98.75;;;7.40;87.50;;;;;;5112301;28;20038;-80
2022/02/10 00:40:12;;;;;;;129.75;82.18;;;7.50;86.80;;;;;;5111915;28;20038;-80
2022/02/10 00:43:16;;;;;;;120.70;76.43;;;7.30;87.40;;;;;;5111850;28;20059;-80
2022/02/10 00:46:20;;;;;;;123.47;73.60;;;7.10;89.20;;;;;;5112050;28;20043;-80
2022/02/10 00:49:24;;;;;;;135.10;80.90;;;7.30;89.30;;;;;;5110826;28;20105;-80
2022/02/10 00:52:29;;;;;;;132.90;81.88;;;7.30;88.40;;;;;;5111696;28;20046;-80
2022/02/10 00:55:35;;;;;;;127.68;78.78;;;7.40;88.40;;;;;;5112016;28;20403;-80
2022/02/10 00:58:42;;;;;;;120.68;76.78;;;7.30;88.70;;;;;;5111781;28;20039;-80
2022/02/10 01:31:47;;;;;;;94.95;63.08;;;7.10;88.10;;;;;;5111383;28;20054;-80
2022/02/10 01:34:52;;;;;;;101.25;66.18;;;7.00;89.10;;;;;;5110532;28;20498;-80
2022/02/10 01:37:56;;;;;;;82.47;53.85;;;7.00;88.40;;;;;;5111380;28;20038;-80
2022/02/10 02:03:18;;;;;;;89.53;51.85;;;6.70;90.30;;;;;;5068048;28;20044;-80
2022/02/10 02:05:18;;;;;;;92.22;52.10;;;6.90;90.00;;;;;;5111254;28;20051;-80
2022/02/10 02:08:26;;;;;;;84.55;51.63;;;7.00;89.50;;;;;;5111085;28;20039;-80
2022/02/10 02:11:30;;;;;;;84.03;52.28;;;7.00;89.60;;;;;;5110938;28;20138;-80
2022/02/10 02:14:36;;;;;;;85.00;52.45;;;6.90;89.40;;;;;;5111121;28;20062;-80
2022/02/10 02:17:40;;;;;;;78.78;47.97;;;6.90;90.10;;;;;;5110772;28;20043;-80
2022/02/10 02:20:49;;;;;;;74.95;47.80;;;7.00;89.70;;;;;;5109837;28;20042;-80
2022/02/10 02:23:53;;;;;;;76.88;47.72;;;7.00;88.10;;;;;;5114213;28;20054;-80
2022/02/10 02:27:01;;;;;;;76.13;47.45;;;6.90;88.30;;;;;;5113835;28;20039;-80
2022/02/10 02:30:12;;;;;;;62.35;39.70;;;7.00;88.10;;;;;;5114238;28;20046;-80
2022/02/10 03:06:41;;;;;;;60.22;31.60;;;6.70;85.50;;;;;;5114014;28;20051;-80
2022/02/10 03:09:55;;;;;;;56.25;32.63;;;6.80;84.50;;;;;;5113863;28;20050;-80
2022/02/10 03:12:59;;;;;;;55.28;32.33;;;6.80;83.70;;;;;;5112920;28;20043;-80
2022/02/10 03:16:43;;;;;;;62.72;33.83;;;6.70;84.60;;;;;;5113818;28;20051;-80
2022/02/10 04:16:33;;;;;;;46.80;26.42;;;6.50;85.80;;;;;;5103756;28;20610;-80
2022/02/10 04:43:27;;;;;;;52.78;30.52;;;6.30;87.50;;;;;;5111921;28;20058;-81
2022/02/10 05:00:37;;;;;;;46.90;26.73;;;6.10;88.50;;;;;;5111831;28;19916;-81
2022/02/10 05:23:20;;;;;;;38.28;23.80;;;6.60;84.90;;;;;;5102483;28;20398;-81
2022/02/10 05:36:22;;;;;;;31.27;17.98;;;6.00;86.30;;;;;;5111295;28;20047;-81
2022/02/10 05:39:28;;;;;;;31.00;18.13;;;5.90;87.10;;;;;;5111264;28;20047;-81
2022/02/10 05:52:50;;;;;;;33.55;18.95;;;6.20;86.20;;;;;;5110448;28;20047;-80
2022/02/10 05:56:04;;;;;;;35.38;20.75;;;6.10;87.30;;;;;;5111474;28;20034;-80
2022/02/10 06:52:20;;;;;;;34.72;16.77;;;7.10;87.80;;;;;;5114225;28;20046;-74
2022/02/10 06:56:49;;;;;;;33.42;17.02;;;7.10;88.00;;;;;;5113998;28;20063;-76
2022/02/10 09:02:39;;;;;;;27.98;13.10;;;13.60;88.80;;;;;;5111494;28;20043;-76
2022/02/10 09:05:21;;;;;;;24.50;12.48;;;13.70;88.80;;;;;;5115065;28;20050;-73
2022/02/10 09:08:59;;;;;;;21.20;10.88;;;13.80;88.50;;;;;;5110712;28;20042;-73
2022/02/10 09:52:39;;;;;;;18.65;9.18;;;15.60;83.70;;;;;;5114333;28;20054;-80
2022/02/10 10:01:59;;;;;;;17.80;9.25;;;16.10;82.80;;;;;;5114789;28;20050;-75
2022/02/10 10:05:06;;;;;;;25.30;8.95;;;16.30;81.50;;;;;;5114776;28;20051;-71
2022/02/10 10:14:51;;;;;;;19.15;10.00;;;16.70;79.60;;;;;;5115067;28;20039;-84
2022/02/10 10:44:57;;;;;;;19.23;7.32;;;17.80;79.20;;;;;;5113218;28;20090;-79
2022/02/10 10:51:20;;;;;;;21.15;6.10;;;17.90;77.80;;;;;;5113993;28;20046;-81
2022/02/10 10:57:37;;;;;;;13.20;4.65;;;18.00;77.40;;;;;;5112762;28;20048;-75
2022/02/10 11:03:32;;;;;;;12.25;5.03;;;18.00;77.60;;;;;;5113283;28;20042;-75
2022/02/10 11:39:01;;;;;;;11.15;5.40;;;17.60;78.40;;;;;;5113042;28;20592;-80
2022/02/10 11:46:14;;;;;;;10.73;5.15;;;17.50;79.10;;;;;;5112896;28;20054;-80
2022/02/10 12:35:27;;;;;;;13.88;4.72;;;16.90;82.20;;;;;;5111370;28;20402;-76
2022/02/10 13:02:42;;;;;;;14.02;4.90;;;16.90;83.20;;;;;;5112075;28;20411;-75
2022/02/10 13:26:30;;;;;;;10.55;4.20;;;16.50;83.10;;;;;;5111323;28;20051;-78
2022/02/10 13:36:08;;;;;;;14.18;4.70;;;16.40;82.90;;;;;;5111058;28;20138;-81
2022/02/10 14:09:01;;;;;;;12.60;4.57;;;16.40;83.50;;;;;;5111065;28;20050;-79
2022/02/10 14:19:01;;;;;;;11.70;5.13;;;16.00;84.50;;;;;;5113058;28;20050;-78
2022/02/10 14:22:11;;;;;;;15.05;5.15;;;16.00;85.00;;;;;;5113820;28;20043;-77
2022/02/10 14:28:38;;;;;;;15.13;4.70;;;15.90;85.70;;;;;;5114491;28;20047;-79
2022/02/10 14:31:44;;;;;;;10.60;5.95;;;15.90;86.00;;;;;;5114162;28;20404;-80
2022/02/10 14:34:51;;;;;;;12.68;5.18;;;15.80;85.70;;;;;;5113870;28;20046;-78
2022/02/10 15:16:02;;;;;;;14.45;5.65;;;15.40;89.00;;;;;;5113520;28;20038;-76
2022/02/10 16:17:59;;;;;;;25.33;8.05;;;14.50;92.60;;;;;;5111860;28;20371;-79
2022/02/10 16:21:03;;;;;;;21.33;6.50;;;14.40;92.90;;;;;;5111662;28;20510;-75
2022/02/10 16:24:17;;;;;;;19.73;6.38;;;14.40;93.00;;;;;;5112266;28;20046;-74
2022/02/10 16:27:26;;;;;;;33.85;8.30;;;14.30;93.10;;;;;;5112004;28;20391;-79
2022/02/10 16:30:30;;;;;;;26.50;8.25;;;14.30;93.30;;;;;;5099647;28;20043;-75
2022/02/10 16:33:35;;;;;;;21.27;8.40;;;14.30;93.40;;;;;;5112225;28;20039;-76
2022/02/10 16:36:40;;;;;;;23.90;8.57;;;14.10;93.50;;;;;;5111623;28;20058;-76
2022/02/10 16:39:44;;;;;;;22.27;8.88;;;14.10;93.70;;;;;;5111356;28;20043;-76
2022/02/10 16:42:50;;;;;;;31.67;9.30;;;14.10;93.70;;;;;;5111986;28;20038;-76
2022/02/10 16:45:56;;;;;;;25.00;9.32;;;14.00;93.90;;;;;;5111373;28;20054;-77
2022/02/10 16:49:01;;;;;;;30.63;8.68;;;14.00;94.00;;;;;;5110577;28;20059;-77
2022/02/10 16:52:07;;;;;;;23.58;8.02;;;14.00;94.00;;;;;;5099590;28;20481;-77
2022/02/10 16:55:25;;;;;;;29.33;9.90;;;13.90;94.00;;;;;;5111686;28;20042;-77
2022/02/10 17:02:47;;;;;;;24.92;14.02;;;13.80;94.30;;;;;;5111995;28;20035;-76
2022/02/10 17:27:55;;;;;;;26.05;14.35;;;13.60;94.70;;;;;;5110522;28;20070;-72
2022/02/10 17:34:37;;;;;;;29.88;13.68;;;13.60;94.60;;;;;;5110259;28;20054;-74
2022/02/10 17:41:40;;;;;;;28.75;12.35;;;13.60;94.30;;;;;;5110471;28;20058;-78
2022/02/10 17:44:55;;;;;;;32.53;14.65;;;13.60;94.40;;;;;;5111247;28;20074;-77
2022/02/10 17:54:32;;;;;;;34.10;14.70;;;13.50;94.90;;;;;;5113358;28;20391;-76
2022/02/10 17:57:37;;;;;;;32.95;16.60;;;13.50;94.80;;;;;;5114186;28;20506;-76
2022/02/10 18:00:41;;;;;;;38.47;17.90;;;13.50;94.70;;;;;;5114959;28;20066;-73
2022/02/10 18:03:45;;;;;;;23.02;13.25;;;13.40;94.70;;;;;;5114117;28;20047;-74
2022/02/10 18:06:53;;;;;;;30.58;16.00;;;13.40;94.80;;;;;;5114453;28;20050;-77
2022/02/10 18:13:22;;;;;;;62.42;34.92;;;13.40;94.60;;;;;;5113928;28;20054;-75
2022/02/10 18:17:13;;;;;;;47.70;23.33;;;13.20;94.60;;;;;;5114523;28;20394;-86
2022/02/10 18:19:58;;;;;;;43.00;23.67;;;13.10;94.90;;;;;;5117090;28;20082;-86
2022/02/10 18:26:11;;;;;;;38.53;23.60;;;12.90;95.00;;;;;;5114354;28;20055;-87
2022/02/10 18:29:33;;;;;;;47.03;21.08;;;12.70;95.10;;;;;;5114915;28;20398;-86
2022/02/10 19:04:42;;;;;;;56.58;33.20;;;12.10;96.30;;;;;;5114582;28;20054;-88
2022/02/10 19:09:39;;;;;;;58.30;34.35;;;12.10;96.50;;;;;;5105329;28;20046;-88
2022/02/10 19:12:48;;;;;;;58.28;31.75;;;12.10;96.50;;;;;;5101783;28;20054;-88
2022/02/10 19:15:54;;;;;;;59.28;35.28;;;12.00;96.30;;;;;;5113995;28;20047;-88
2022/02/10 19:18:59;;;;;;;54.53;30.55;;;12.00;96.10;;;;;;5114072;28;20066;-88
2022/02/10 19:22:03;;;;;;;55.33;29.48;;;12.00;95.70;;;;;;5117797;28;20043;-88
2022/02/10 19:25:09;;;;;;;51.63;30.42;;;11.70;95.60;;;;;;5102017;28;20148;-89
2022/02/10 19:28:13;;;;;;;49.75;30.25;;;11.60;95.80;;;;;;5115584;28;20047;-87
2022/02/10 19:31:21;;;;;;;64.90;32.42;;;11.60;96.00;;;;;;5114070;28;20043;-87
2022/02/10 19:34:31;;;;;;;53.70;34.05;;;11.60;96.20;;;;;;5113949;28;20043;-88
2022/02/10 19:37:36;;;;;;;50.72;33.20;;;11.50;96.00;;;;;;5113491;28;20486;-88
2022/02/10 19:40:41;;;;;;;52.20;32.13;;;11.50;96.00;;;;;;5114834;28;20043;-88
2022/02/10 19:43:47;;;;;;;60.20;34.25;;;11.40;96.00;;;;;;5114098;28;20050;-88
2022/02/10 19:46:51;;;;;;;45.03;31.95;;;11.40;96.20;;;;;;5101203;28;20054;-88
2022/02/10 19:49:56;;;;;;;60.42;33.60;;;11.40;96.40;;;;;;5114018;28;20115;-88
2022/02/10 19:53:04;;;;;;;57.15;35.55;;;11.20;95.70;;;;;;5114044;28;20050;-89
2022/02/10 19:56:09;;;;;;;55.03;34.20;;;11.00;96.10;;;;;;5112929;28;20047;-88
2022/02/10 19:59:17;;;;;;;55.22;36.40;;;11.00;96.40;;;;;;5115229;28;20055;-88
2022/02/10 20:02:24;;;;;;;65.95;39.05;;;10.90;96.40;;;;;;5116457;28;20043;-89
2022/02/10 20:05:29;;;;;;;57.28;38.88;;;11.00;96.60;;;;;;5115972;28;20069;-88
2022/02/10 20:08:33;;;;;;;96.32;56.05;;;10.90;96.30;;;;;;5115898;28;20054;-88
2022/02/10 20:11:38;;;;;;;80.65;48.63;;;10.90;96.40;;;;;;5116605;28;20059;-88
2022/02/10 20:14:42;;;;;;;82.05;49.17;;;10.90;96.30;;;;;;5115144;28;20035;-88
2022/02/10 20:17:47;;;;;;;88.15;53.05;;;10.70;95.90;;;;;;5114924;28;20054;-88
2022/02/10 20:20:53;;;;;;;93.47;58.38;;;10.70;96.40;;;;;;5114524;28;20066;-89
2022/02/10 20:23:58;;;;;;;99.90;62.50;;;10.60;96.40;;;;;;5114871;28;20070;-89
2022/02/10 20:27:02;;;;;;;106.78;70.10;;;10.70;96.60;;;;;;5112914;28;20411;-88
2022/02/10 20:30:07;;;;;;;109.28;70.07;;;10.80;96.90;;;;;;5112789;28;20289;-88
2022/02/10 20:33:12;;;;;;;110.53;69.15;;;10.90;96.80;;;;;;5114625;28;20414;-88
2022/02/10 20:36:18;;;;;;;106.30;67.63;;;11.00;96.40;;;;;;5113777;28;20130;-89
2022/02/10 20:39:26;;;;;;;117.90;76.28;;;10.90;96.10;;;;;;5113982;28;20042;-89
2022/02/10 20:42:32;;;;;;;109.43;73.45;;;10.80;96.00;;;;;;5112993;28;20047;-88
2022/02/10 20:45:37;;;;;;;106.43;72.53;;;10.70;96.60;;;;;;5112866;28;20348;-89
2022/02/10 20:48:42;;;;;;;133.95;80.15;;;10.70;96.60;;;;;;5113140;28;20054;-88
2022/02/10 20:51:50;;;;;;;127.85;85.18;;;10.70;96.30;;;;;;5112578;28;20054;-84
2022/02/10 20:54:56;;;;;;;132.05;90.13;;;10.70;96.30;;;;;;5113924;28;20042;-88
2022/02/10 20:58:00;;;;;;;148.32;96.88;;;10.70;96.40;;;;;;5112987;28;20377;-88
2022/02/10 21:01:05;;;;;;;143.85;98.25;;;10.70;96.60;;;;;;5112753;28;20391;-88
2022/02/10 21:04:10;;;;;;;140.75;94.28;;;10.60;96.50;;;;;;5113279;28;20363;-88
2022/02/10 21:07:25;;;;;;;132.27;90.78;;;10.50;96.50;;;;;;5113544;28;20399;-88
2022/02/10 21:10:30;;;;;;;130.70;87.50;;;10.50;96.80;;;;;;5112913;28;20042;-88
2022/02/10 21:13:34;;;;;;;130.13;84.25;;;10.50;96.70;;;;;;5113888;28;20054;-88
2022/02/10 21:16:41;;;;;;;125.93;87.07;;;10.50;97.00;;;;;;5114697;28;20054;-88
2022/02/10 21:19:45;;;;;;;106.25;72.43;;;10.50;96.80;;;;;;5114520;28;20058;-88
2022/02/10 21:22:58;;;;;;;123.50;76.47;;;10.70;96.60;;;;;;5117147;28;20080;-88
2022/02/10 21:26:03;;;;;;;117.05;81.55;;;10.70;96.60;;;;;;5116311;28;20070;-88
2022/02/10 21:29:07;;;;;;;122.30;82.35;;;10.70;96.40;;;;;;5114043;28;20391;-88
2022/02/10 21:32:12;;;;;;;131.20;86.55;;;10.70;96.40;;;;;;5115189;28;20042;-88
2022/02/10 21:38:29;;;;;;;132.38;92.53;;;10.70;96.30;;;;;;5116294;28;20038;-88
2022/02/10 22:08:01;;;;;;;128.18;85.93;;;10.20;96.90;;;;;;5114543;28;20050;-89
2022/02/10 22:20:47;;;;;;;86.30;53.42;;;10.00;96.30;;;;;;5113764;28;20051;-88
2022/02/10 22:23:51;;;;;;;93.78;61.28;;;10.10;96.10;;;;;;5116044;28;20039;-88
2022/02/10 22:26:55;;;;;;;91.03;59.88;;;9.90;95.90;;;;;;5113741;28;20125;-88
2022/02/10 22:30:07;;;;;;;90.32;61.35;;;9.80;96.10;;;;;;5114315;28;20039;-88
2022/02/10 22:33:41;;;;;;;92.85;62.33;;;9.80;96.30;;;;;;5113269;28;20043;-89
2022/02/10 22:36:47;;;;;;;91.35;59.00;;;9.70;96.30;;;;;;5112963;28;20047;-88
2022/02/10 22:39:54;;;;;;;87.85;60.00;;;9.60;96.40;;;;;;5114216;28;20047;-88
2022/02/10 22:43:00;;;;;;;96.95;62.63;;;9.60;96.40;;;;;;5117579;28;20046;-88
2022/02/10 22:46:05;;;;;;;88.40;58.38;;;9.50;96.40;;;;;;5117324;28;20521;-88
2022/02/10 22:49:09;;;;;;;98.22;64.88;;;9.50;96.60;;;;;;5117206;28;20573;-88
2022/02/10 22:52:13;;;;;;;103.03;69.13;;;9.40;96.80;;;;;;5117390;28;20054;-89
2022/02/10 22:55:17;;;;;;;94.28;61.38;;;9.30;96.30;;;;;;5117485;28;20395;-87
2022/02/10 22:58:21;;;;;;;101.28;64.68;;;9.10;96.90;;;;;;5117447;28;20047;-88
2022/02/10 23:01:26;;;;;;;101.65;67.38;;;9.20;97.20;;;;;;5116747;28;20039;-88
2022/02/10 23:04:30;;;;;;;100.35;67.50;;;9.10;96.90;;;;;;5116888;28;20043;-88
2022/02/10 23:07:33;;;;;;;104.00;68.60;;;9.10;96.90;;;;;;5117672;28;20058;-88
2022/02/10 23:13:46;;;;;;;111.45;64.90;;;8.80;97.40;;;;;;5117134;28;20035;-88
2022/02/10 23:16:50;;;;;;;105.50;63.72;;;8.80;97.70;;;;;;5116921;28;20047;-87
2022/02/10 23:19:54;;;;;;;94.90;62.17;;;8.80;97.90;;;;;;5118330;28;20034;-88
2022/02/10 23:22:58;;;;;;;105.95;65.05;;;9.00;97.80;;;;;;5119064;28;20043;-88
2022/02/10 23:26:05;;;;;;;104.63;65.38;;;8.90;97.50;;;;;;5119082;28;20059;-88
2022/02/10 23:29:09;;;;;;;119.20;69.85;;;8.90;97.70;;;;;;5119241;28;20043;-88
2022/02/10 23:32:13;;;;;;;110.65;69.82;;;8.90;97.60;;;;;;5119246;28;20197;-88
2022/02/10 23:38:49;;;;;;;97.13;68.80;;;8.80;97.90;;;;;;5118970;28;20050;-88
2022/02/10 23:45:13;;;;;;;102.25;65.57;;;8.70;97.40;;;;;;5120408;28;20497;-89
2022/02/10 23:48:18;;;;;;;111.47;68.47;;;8.60;97.80;;;;;;5118684;28;20510;-88
2022/02/10 23:51:27;;;;;;;104.07;66.50;;;8.40;98.00;;;;;;5119057;28;20038;-88
2022/02/10 23:54:35;;;;;;;102.82;65.45;;;8.50;98.60;;;;;;5120689;28;20359;-88
2022/02/10 23:57:51;;;;;;;98.68;65.10;;;8.50;98.40;;;;;;5121622;28;20051;-88
